Latest Weather Observations for PORTABLE RFSNSW11

IDN60801

Issued at 9:12 am EST Tuesday 21 May 2019 (issued every 10 minutes, with the page automatically refreshed every 10 minutes)

About weather observations | Map of weather stations | Latest weather observations for NSW | Other Formats
Station Details ID: 250065 Name: PORTABLE RFSNSW11 Lat: -29.61 Lon: 152.48 Height: 1015.0 m
Data from the previous 72 hours. | See also: Recent months for locations in New South Wales
Date/Time
EST
Temp
°C
App
Temp
°C
Dew
Point
°C
Rel
Hum
%
Delta-T
°C
Wind Press
QNH
hPa
Press
MSL
hPa
Rain since
9am
mm
Dir  Spd
km/h
Gust
km/h
Spd
kts
Gust
kts
21/08:10am 14.4 - 10.6 78 2.1 - - - - - - - 0.0
21/08:00am 13.5 - 10.2 80 1.8 - - - - - - - 0.0
21/07:50am 12.6 - 9.5 81 1.7 - - - - - - - 0.0
21/07:40am 12.6 - 9.3 80 1.8 - - - - - - - 0.0
21/07:30am 12.6 - 9.3 80 1.8 - - - - - - - 0.0
21/07:20am 12.5 - 9.0 79 1.9 - - - - - - - 0.0
21/07:10am 12.5 - 9.0 79 1.9 - - - - - - - 0.0
21/07:00am 12.4 - 8.8 79 1.9 - - - - - - - 0.0
21/06:50am 12.3 - 8.8 79 1.8 - - - - - - - 0.0
21/06:40am 12.0 - 8.4 78 1.9 - - - - - - - 0.0
21/06:30am 11.7 - 8.2 79 1.8 - - - - - - - 0.0
21/06:20am 11.2 - 8.2 82 1.6 - - - - - - - 0.0
21/06:10am 10.8 - 8.3 84 1.3 - - - - - - - 0.0
21/06:00am 10.7 - 8.8 88 1.0 - - - - - - - 0.0
21/05:50am 10.9 - 9.1 89 0.9 - - - - - - - 0.0
21/05:40am 11.1 - 8.5 84 1.4 - - - - - - - 0.0
21/05:30am 11.2 - 8.6 84 1.4 - - - - - - - 0.0
21/05:20am 11.3 - 8.3 82 1.6 - - - - - - - 0.0
21/05:10am 11.2 - 8.2 82 1.6 - - - - - - - 0.0
21/05:00am 11.1 - 8.1 82 1.5 - - - - - - - 0.0
21/04:50am 11.2 - 8.2 82 1.6 - - - - - - - 0.0
21/04:40am 11.2 - 8.1 81 1.6 - - - - - - - 0.0
21/04:30am 11.1 - 8.6 84 1.3 - - - - - - - 0.0
21/04:20am 11.1 - 9.1 87 1.1 - - - - - - - 0.0
21/04:10am 11.1 - 9.2 88 1.0 - - - - - - - 0.0
21/04:00am 11.1 - 9.0 87 1.1 - - - - - - - 0.0
21/03:50am 11.1 - 9.0 87 1.1 - - - - - - - 0.0
21/03:40am 11.1 - 9.0 87 1.1 - - - - - - - 0.0
21/03:30am 11.1 - 8.9 86 1.2 - - - - - - - 0.0
21/03:20am 11.0 - 9.0 87 1.1 - - - - - - - 0.0
21/03:10am 11.0 - 8.9 87 1.1 - - - - - - - 0.0
21/03:00am 11.1 - 9.1 87 1.1 - - - - - - - 0.0
21/02:50am 11.1 - 9.1 87 1.1 - - - - - - - 0.0
21/02:40am 11.1 - 9.7 91 0.7 - - - - - - - 0.0
21/02:30am 11.2 - 9.9 92 0.7 - - - - - - - 0.0
21/02:20am 11.2 - 10.1 93 0.6 - - - - - - - 0.0
21/02:10am 11.3 - 10.2 93 0.6 - - - - - - - 0.0
21/02:00am 11.3 - 10.3 94 0.5 - - - - - - - 0.0
21/01:50am 11.3 - 10.3 94 0.5 - - - - - - - 0.0
21/01:40am 11.3 - 10.1 92 0.6 - - - - - - - 0.0
21/01:30am 11.3 - 9.9 91 0.8 - - - - - - - 0.0
21/01:20am 11.3 - 9.6 89 0.9 - - - - - - - 0.0
21/01:10am 11.1 - 9.5 90 0.9 - - - - - - - 0.0
21/01:00am 11.1 - 9.4 89 0.9 - - - - - - - 0.0
21/12:50am 11.0 - 9.9 93 0.6 - - - - - - - 0.0
21/12:40am 10.9 - 9.9 93 0.5 - - - - - - - 0.0
21/12:30am 11.0 - 10.3 95 0.4 - - - - - - - 0.0
21/12:20am 11.0 - 10.5 97 0.3 - - - - - - - 0.0
21/12:10am 11.2 - 10.8 97 0.2 - - - - - - - 0.0
21/12:00am 11.3 - 10.9 97 0.2 - - - - - - - 0.0
 
Date/Time
EST
Temp
°C
App
Temp
°C
Dew
Point
°C
Rel
Hum
%
Delta-T
°C
Wind Press
QNH
hPa
Press
MSL
hPa
Rain since
9am
mm
Dir  Spd
km/h
Gust
km/h
Spd
kts
Gust
kts
20/11:50pm 11.2 - 10.8 97 0.2 - - - - - - - 0.0
20/11:40pm 11.1 - 10.6 97 0.3 - - - - - - - 0.0
20/11:30pm 10.5 - 9.8 95 0.4 - - - - - - - 0.0
20/11:20pm 10.9 - 10.7 99 0.1 - - - - - - - 0.0
20/11:10pm 11.4 - 11.1 98 0.2 - - - - - - - 0.0
20/11:00pm 11.4 - 11.1 98 0.2 - - - - - - - 0.0
20/10:50pm 11.3 - 11.0 98 0.2 - - - - - - - 0.0
20/10:40pm 11.3 - 11.0 98 0.2 - - - - - - - 0.0
20/10:30pm 11.3 - 10.9 97 0.2 - - - - - - - 0.0
20/10:20pm 11.3 - 10.8 97 0.3 - - - - - - - 0.0
20/10:10pm 11.2 - 10.5 95 0.4 - - - - - - - 0.0
20/10:00pm 11.2 - 10.4 95 0.4 - - - - - - - 0.0
20/09:50pm 11.2 - 10.2 94 0.5 - - - - - - - 0.0
20/09:40pm 11.1 - 10.1 94 0.5 - - - - - - - 0.0
20/09:30pm 11.1 - 10.0 93 0.6 - - - - - - - 0.0
20/09:20pm 11.0 - 9.8 92 0.6 - - - - - - - 0.0
20/09:10pm 11.0 - 10.0 93 0.5 - - - - - - - 0.0
20/09:00pm 11.0 - 10.3 95 0.4 - - - - - - - 0.0
20/08:50pm 10.8 - 10.4 97 0.2 - - - - - - - 0.0
20/08:40pm 11.0 - 10.8 99 0.1 - - - - - - - 0.0
20/08:30pm 11.3 - 11.1 99 0.1 - - - - - - - 0.0
20/08:20pm 11.4 - 11.2 99 0.1 - - - - - - - 0.0
20/08:10pm 11.4 - 11.3 99 0.1 - - - - - - - 0.0
20/08:00pm 11.4 - 11.2 99 0.1 - - - - - - - 0.0
20/07:50pm 11.5 - 11.2 98 0.2 - - - - - - - 0.0
20/07:40pm 11.5 - 11.3 99 0.1 - - - - - - - 0.0
20/07:30pm 11.5 - 11.3 99 0.1 - - - - - - - 0.0
20/07:20pm 11.5 - 11.3 99 0.1 - - - - - - - 0.0
20/07:10pm 11.5 - 11.2 98 0.2 - - - - - - - 0.0
20/07:00pm 11.6 - 11.2 97 0.2 - - - - - - - 0.0
20/06:50pm 11.6 - 11.2 97 0.2 - - - - - - - 0.0
20/06:40pm 11.6 - 11.2 97 0.2 - - - - - - - 0.0
20/06:30pm 11.6 - 11.2 97 0.2 - - - - - - - 0.0
20/06:20pm 11.6 - 11.2 97 0.2 - - - - - - - 0.0
20/06:10pm 11.6 - 11.2 97 0.2 - - - - - - - 0.0
20/06:00pm 11.7 - 11.3 97 0.2 - - - - - - - 0.0
20/05:50pm 11.8 - 11.3 97 0.3 - - - - - - - 0.0
20/05:40pm 11.9 - 11.3 96 0.3 - - - - - - - 0.0
20/05:30pm 11.9 - 11.4 97 0.3 - - - - - - - 0.0
20/05:20pm 11.8 - 11.3 97 0.3 - - - - - - - 0.0
20/05:10pm 11.7 - 11.1 96 0.3 - - - - - - - 0.0
20/05:00pm 11.8 - 11.1 95 0.4 - - - - - - - 0.0
20/04:50pm 12.0 - 11.2 95 0.4 - - - - - - - 0.0
20/04:40pm 12.2 - 11.2 94 0.6 - - - - - - - 0.0
20/04:30pm 12.4 - 11.3 93 0.6 - - - - - - - 0.0
20/04:20pm 12.6 - 11.4 92 0.7 - - - - - - - 0.0
20/04:10pm 12.9 - 11.5 91 0.8 - - - - - - - 0.0
20/04:00pm 13.0 - 11.7 92 0.7 - - - - - - - 0.0
20/03:50pm 13.1 - 11.5 90 0.9 - - - - - - - 0.0
20/03:40pm 13.2 - 11.5 89 1.0 - - - - - - - 0.0
20/03:30pm 13.2 - 11.4 89 1.0 - - - - - - - 0.0
20/03:20pm 13.3 - 11.2 87 1.2 - - - - - - - 0.0
20/03:10pm 13.5 - 11.5 88 1.1 - - - - - - - 0.0
20/03:00pm 13.6 - 11.2 85 1.3 - - - - - - - 0.0
20/02:50pm 13.7 - 11.8 88 1.1 - - - - - - - 0.0
20/02:40pm 13.8 - 11.4 85 1.3 - - - - - - - 0.0
20/02:30pm 13.9 - 10.9 82 1.7 - - - - - - - 0.0
20/02:20pm 13.9 - 11.5 85 1.3 - - - - - - - 0.0
20/02:10pm 14.0 - 11.4 84 1.5 - - - - - - - 0.0
20/02:00pm 14.1 - 11.6 85 1.4 - - - - - - - 0.0
20/01:50pm 14.2 - 11.4 83 1.6 - - - - - - - 0.0
20/01:40pm 14.4 - 11.5 83 1.6 - - - - - - - 0.0
20/01:30pm 14.5 - 11.2 80 1.8 - - - - - - - 0.0
20/01:20pm 14.8 - 10.8 77 2.2 - - - - - - - 0.0
20/01:10pm 15.4 - 11.0 75 2.5 - - - - - - - 0.0
20/01:00pm 15.5 - 10.2 70 2.9 - - - - - - - 0.0
20/12:50pm 15.3 - 10.0 70 2.9 - - - - - - - 0.0
20/12:40pm 15.0 - 10.8 76 2.3 - - - - - - - 0.0
20/12:30pm 15.1 - 10.1 72 2.8 - - - - - - - 0.0
20/12:20pm 15.7 - 11.2 74 2.5 - - - - - - - 0.0
20/12:10pm 15.7 - 11.2 74 2.5 - - - - - - - 0.0
20/12:00pm 15.6 - 11.9 78 2.1 - - - - - - - 0.0
20/11:50am 15.3 - 11.7 79 2.0 - - - - - - - 0.0
20/11:40am 14.9 - 10.3 74 2.5 - - - - - - - 0.0
20/11:30am 14.8 - 10.9 77 2.2 - - - - - - - 0.0
20/11:20am 14.4 - 9.2 71 2.8 - - - - - - - 0.0
20/11:10am 14.5 - 10.7 78 2.1 - - - - - - - 0.0
20/11:00am 14.6 - 10.8 78 2.1 - - - - - - - 0.0
20/10:50am 14.5 - 11.3 81 1.8 - - - - - - - 0.0
20/10:40am 14.5 - 11.5 82 1.7 - - - - - - - 0.0
20/10:30am 14.4 - 12.6 89 1.0 - - - - - - - 0.0
20/10:20am 13.7 - 10.8 83 1.6 - - - - - - - 0.0
20/10:10am 13.5 - 11.4 87 1.2 - - - - - - - 0.0
20/10:00am 13.3 - 11.2 87 1.2 - - - - - - - 0.0
20/09:50am 13.2 - 11.1 87 1.2 - - - - - - - 0.0
20/09:40am 13.2 - 11.0 86 1.2 - - - - - - - 0.0
20/09:30am 13.0 - 11.6 91 0.8 - - - - - - - 0.0
20/09:20am 12.8 - 11.5 92 0.7 - - - - - - - 0.0
20/09:10am 12.8 - 11.5 92 0.7 - - - - - - - 0.0
20/09:00am 12.7 - 11.6 93 0.6 - - - - - - - 0.0
20/08:50am 12.6 - 11.3 92 0.7 - - - - - - - 0.0
20/08:40am 12.4 - 11.1 92 0.7 - - - - - - - 0.0
20/08:30am 12.3 - 11.3 94 0.6 - - - - - - - 0.0
20/08:20am 12.1 - 11.2 94 0.5 - - - - - - - 0.0
20/08:10am 11.9 - 11.0 94 0.5 - - - - - - - 0.0
20/08:00am 11.8 - 11.0 95 0.4 - - - - - - - 0.0
20/07:50am 11.6 - 11.0 96 0.3 - - - - - - - 0.0
20/07:40am 11.4 - 11.0 97 0.2 - - - - - - - 0.0
20/07:30am 11.0 - 10.6 97 0.2 - - - - - - - 0.0
20/07:20am 10.8 - 10.4 97 0.2 - - - - - - - 0.0
20/07:10am 10.6 - 10.2 97 0.2 - - - - - - - 0.0
20/07:00am 10.4 - 10.1 98 0.2 - - - - - - - 0.0
20/06:50am 10.2 - 9.9 98 0.2 - - - - - - - 0.0
20/06:40am 10.1 - 9.7 97 0.2 - - - - - - - 0.0
20/06:30am 10.1 - 9.8 98 0.2 - - - - - - - 0.0
20/06:20am 10.0 - 9.7 98 0.2 - - - - - - - 0.0
20/06:10am 10.0 - 9.7 98 0.2 - - - - - - - 0.0
20/06:00am 10.1 - 9.8 98 0.2 - - - - - - - 0.0
20/05:50am 10.2 - 9.8 97 0.2 - - - - - - - 0.0
20/05:40am 10.3 - 9.9 97 0.2 - - - - - - - 0.0
20/05:30am 10.5 - 10.1 97 0.2 - - - - - - - 0.0
20/05:20am 10.6 - 10.2 97 0.2 - - - - - - - 0.0
20/05:10am 10.6 - 10.2 97 0.2 - - - - - - - 0.0
20/05:00am 10.3 - 9.9 97 0.2 - - - - - - - 0.0
20/04:50am 10.2 - 9.8 97 0.2 - - - - - - - 0.0
20/04:40am 10.2 - 9.6 96 0.3 - - - - - - - 0.0
20/04:30am 10.3 - 9.8 97 0.3 - - - - - - - 0.0
20/04:20am 10.4 - 9.9 97 0.3 - - - - - - - 0.0
20/04:00am 10.2 - 9.8 97 0.2 - - - - - - - 0.0
20/03:50am 10.0 - 9.6 97 0.2 - - - - - - - 0.0
20/03:40am 9.9 - 9.5 97 0.2 - - - - - - - 0.0
20/03:30am 9.9 - 9.5 97 0.2 - - - - - - - 0.0
20/03:20am 9.9 - 9.5 97 0.2 - - - - - - - 0.0
20/03:10am 9.9 - 9.5 97 0.2 - - - - - - - 0.0
20/03:00am 9.8 - 9.3 97 0.3 - - - - - - - 0.0
20/02:50am 9.9 - 9.4 97 0.3 - - - - - - - 0.0
20/02:40am 10.0 - 9.4 96 0.3 - - - - - - - 0.0
20/02:30am 10.1 - 9.5 96 0.3 - - - - - - - 0.0
20/02:20am 10.2 - 9.6 96 0.3 - - - - - - - 0.0
20/02:10am 10.1 - 9.6 97 0.3 - - - - - - - 0.0
20/02:00am 10.1 - 9.6 97 0.3 - - - - - - - 0.0
20/01:50am 10.0 - 9.6 97 0.2 - - - - - - - 0.0
20/01:40am 10.0 - 9.6 97 0.2 - - - - - - - 0.0
20/01:30am 9.8 - 9.4 97 0.2 - - - - - - - 0.0
20/01:20am 9.8 - 9.4 97 0.2 - - - - - - - 0.0
20/01:10am 9.7 - 9.3 97 0.2 - - - - - - - 0.0
20/01:00am 9.8 - 9.3 97 0.3 - - - - - - - 0.0
20/12:50am 9.9 - 9.4 97 0.3 - - - - - - - 0.0
20/12:40am 10.1 - 9.6 97 0.3 - - - - - - - 0.0
20/12:30am 10.3 - 9.9 97 0.2 - - - - - - - 0.0
20/12:20am 10.5 - 10.1 97 0.2 - - - - - - - 0.0
20/12:10am 10.6 - 10.2 97 0.2 - - - - - - - 0.0
20/12:00am 10.6 - 10.3 98 0.2 - - - - - - - 0.0
 
Date/Time
EST
Temp
°C
App
Temp
°C
Dew
Point
°C
Rel
Hum
%
Delta-T
°C
Wind Press
QNH
hPa
Press
MSL
hPa
Rain since
9am
mm
Dir  Spd
km/h
Gust
km/h
Spd
kts
Gust
kts
19/11:50pm 10.7 - 10.4 98 0.2 - - - - - - - 0.0
19/11:40pm 10.8 - 10.6 99 0.1 - - - - - - - 0.0
19/11:30pm 10.9 - 10.6 98 0.2 - - - - - - - 0.0
19/11:20pm 10.9 - 10.6 98 0.2 - - - - - - - 0.0
19/11:10pm 10.9 - 10.6 98 0.2 - - - - - - - 0.0
19/11:00pm 10.8 - 10.5 98 0.2 - - - - - - - 0.0
19/10:50pm 10.8 - 10.4 97 0.2 - - - - - - - 0.0
19/10:40pm 10.7 - 10.3 97 0.2 - - - - - - - 0.0
19/10:30pm 10.7 - 10.2 97 0.3 - - - - - - - 0.0
19/10:20pm 10.7 - 10.3 97 0.2 - - - - - - - 0.0
19/10:10pm 10.8 - 10.3 97 0.3 - - - - - - - 0.0
19/10:00pm 10.8 - 10.3 97 0.3 - - - - - - - 0.0
19/09:50pm 10.8 - 10.3 97 0.3 - - - - - - - 0.0
19/09:40pm 10.7 - 10.2 97 0.3 - - - - - - - 0.0
19/09:30pm 10.7 - 10.1 96 0.3 - - - - - - - 0.0
19/09:20pm 10.6 - 10.0 96 0.3 - - - - - - - 0.0
19/09:10pm 10.7 - 10.0 95 0.4 - - - - - - - 0.0
19/09:00pm 10.6 - 10.1 97 0.3 - - - - - - - 0.0
19/08:50pm 10.6 - 10.1 97 0.3 - - - - - - - 0.0
19/08:40pm 10.8 - 10.1 95 0.4 - - - - - - - 0.0
19/08:30pm 10.7 - 10.2 97 0.3 - - - - - - - 0.0
19/08:20pm 10.7 - 10.1 96 0.3 - - - - - - - 0.0
19/08:10pm 10.7 - 9.9 95 0.4 - - - - - - - 0.0
19/08:00pm 10.8 - 9.7 93 0.6 - - - - - - - 0.0
19/07:50pm 10.7 - 9.6 93 0.6 - - - - - - - 0.0
19/07:40pm 10.8 - 10.1 95 0.4 - - - - - - - 0.0
19/07:30pm 10.9 - 10.3 96 0.3 - - - - - - - 0.0
19/07:20pm 11.0 - 10.3 95 0.4 - - - - - - - 0.0
19/07:10pm 11.1 - 10.5 96 0.3 - - - - - - - 0.0
19/07:00pm 11.3 - 10.5 95 0.4 - - - - - - - 0.0
19/06:50pm 11.4 - 10.6 95 0.4 - - - - - - - 0.0
19/06:40pm 11.5 - 10.6 94 0.5 - - - - - - - 0.0
19/06:30pm 11.6 - 10.5 93 0.6 - - - - - - - 0.0
19/06:20pm 11.7 - 10.6 93 0.6 - - - - - - - 0.0
19/06:00pm 11.9 - 10.9 94 0.5 - - - - - - - 0.0
19/05:50pm 11.9 - 10.9 94 0.5 - - - - - - - 0.0
19/05:40pm 12.0 - 10.9 93 0.6 - - - - - - - 0.0
19/05:30pm 12.0 - 10.8 92 0.7 - - - - - - - 0.0
19/05:20pm 12.0 - 10.8 92 0.7 - - - - - - - 0.0
19/05:10pm 12.1 - 10.7 91 0.8 - - - - - - - 0.0
19/05:00pm 12.1 - 10.7 91 0.8 - - - - - - - 0.0
19/04:50pm 12.2 - 10.7 90 0.8 - - - - - - - 0.0
19/04:40pm 12.3 - 10.9 91 0.8 - - - - - - - 0.0
19/04:30pm 12.3 - 10.6 89 0.9 - - - - - - - 0.0
19/04:20pm 12.5 - 10.7 89 1.0 - - - - - - - 0.0
19/04:10pm 12.6 - 10.6 88 1.1 - - - - - - - 0.0
19/04:00pm 12.6 - 10.5 87 1.1 - - - - - - - 0.0
19/03:50pm 12.6 - 10.4 86 1.2 - - - - - - - 0.0
19/03:40pm 12.8 - 9.6 81 1.7 - - - - - - - 0.0
19/03:30pm 13.2 - 9.0 75 2.2 - - - - - - - 0.0
19/03:20pm 13.4 - 8.6 73 2.5 - - - - - - - 0.0
19/03:10pm 13.3 - 8.7 73 2.4 - - - - - - - 0.0
19/03:00pm 13.3 - 8.4 72 2.6 - - - - - - - 0.0
19/02:50pm 13.4 - 8.7 73 2.5 - - - - - - - 0.0
19/02:40pm 13.9 - 10.0 77 2.1 - - - - - - - 0.0
19/02:30pm 14.8 - 10.5 75 2.4 - - - - - - - 0.0
19/02:20pm 15.1 - 10.5 74 2.6 - - - - - - - 0.0
19/02:10pm 14.9 - 10.1 73 2.6 - - - - - - - 0.0
19/02:00pm 14.6 - 9.8 73 2.6 - - - - - - - 0.0
19/01:50pm 14.3 - 10.2 76 2.3 - - - - - - - 0.0
19/01:40pm 14.5 - 10.4 76 2.3 - - - - - - - 0.0
19/01:30pm 15.3 - 10.2 71 2.8 - - - - - - - 0.0
19/01:20pm 14.9 - 10.9 77 2.2 - - - - - - - 0.0
19/01:10pm 15.3 - 11.0 75 2.4 - - - - - - - 0.0
19/01:00pm 16.1 - 10.9 71 2.9 - - - - - - - 0.0
19/12:50pm 17.0 - 11.4 69 3.2 - - - - - - - 0.0
19/12:40pm 16.2 - 9.9 66 3.5 - - - - - - - 0.0
19/12:30pm 16.5 - 9.9 65 3.6 - - - - - - - 0.0
19/12:20pm 16.3 - 9.2 63 3.9 - - - - - - - 0.0
19/12:10pm 15.7 - 9.7 67 3.3 - - - - - - - 0.0
19/12:00pm 14.8 - 8.1 64 3.5 - - - - - - - 0.0
19/11:50am 14.7 - 8.0 64 3.5 - - - - - - - 0.0
19/11:40am 14.9 - 8.2 64 3.6 - - - - - - - 0.0
19/11:30am 14.8 - 8.2 64 3.5 - - - - - - - 0.0
19/11:20am 14.9 - 8.5 65 3.4 - - - - - - - 0.0
19/11:10am 14.7 - 8.6 67 3.3 - - - - - - - 0.0
19/11:00am 14.9 - 10.3 74 2.5 - - - - - - - 0.0
19/10:50am 14.7 - 10.1 74 2.5 - - - - - - - 0.0
19/10:40am 15.0 - 10.9 76 2.3 - - - - - - - 0.0
19/10:30am 15.3 - 10.8 74 2.5 - - - - - - - 0.0
19/10:20am 14.8 - 10.7 76 2.3 - - - - - - - 0.0
19/10:10am 14.1 - 11.3 83 1.6 - - - - - - - 0.0
19/09:50am 13.8 - 10.9 83 1.6 - - - - - - - 0.0
19/09:30am 12.8 - 10.8 88 1.1 - - - - - - - 0.0
19/09:20am 12.7 - 10.8 88 1.0 - - - - - - - 0.0
19/09:10am 12.3 - 10.7 90 0.9 - - - - - - - 0.0
19/09:00am 11.9 - 10.5 91 0.8 - - - - - - - 0.0
19/08:50am 11.6 - 10.4 92 0.7 - - - - - - - 0.0
19/08:40am 11.2 - 10.3 94 0.5 - - - - - - - 0.0
19/08:30am 11.2 - 10.2 94 0.5 - - - - - - - 0.0
19/08:20am 11.4 - 10.4 94 0.5 - - - - - - - 0.0
19/08:10am 11.3 - 10.3 94 0.5 - - - - - - - 0.0
19/08:00am 11.0 - 10.0 93 0.5 - - - - - - - 0.0
19/07:50am 11.1 - 10.0 93 0.6 - - - - - - - 0.0
19/07:40am 10.9 - 9.7 92 0.6 - - - - - - - 0.0
19/07:30am 10.5 - 9.5 93 0.5 - - - - - - - 0.0
19/07:20am 10.4 - 9.3 93 0.6 - - - - - - - 0.0
19/07:10am 10.3 - 9.3 93 0.5 - - - - - - - 0.0
19/07:00am 10.3 - 9.4 94 0.5 - - - - - - - 0.0
19/06:50am 10.1 - 9.4 95 0.4 - - - - - - - 0.0
19/06:40am 10.0 - 9.3 95 0.4 - - - - - - - 0.0
19/06:30am 10.0 - 9.3 95 0.4 - - - - - - - 0.0
19/06:20am 9.9 - 9.5 97 0.2 - - - - - - - 0.0
19/06:10am 9.9 - 9.5 97 0.2 - - - - - - - 0.0
19/06:00am 9.8 - 9.4 97 0.2 - - - - - - - 0.0
19/05:50am 9.7 - 9.4 98 0.2 - - - - - - - 0.0
19/05:40am 9.8 - 9.6 99 0.1 - - - - - - - 0.0
19/05:30am 9.9 - 9.6 98 0.2 - - - - - - - 0.0
19/05:20am 9.8 - 9.5 98 0.2 - - - - - - - 0.0
19/05:10am 9.8 - 9.5 98 0.2 - - - - - - - 0.0
19/05:00am 9.8 - 9.6 99 0.1 - - - - - - - 0.0
19/04:50am 9.9 - 9.6 98 0.2 - - - - - - - 0.0
19/04:40am 9.9 - 9.7 99 0.1 - - - - - - - 0.0
19/04:30am 10.0 - 9.8 99 0.1 - - - - - - - 0.0
19/04:20am 10.1 - 9.8 98 0.2 - - - - - - - 0.0
19/04:10am 10.1 - 9.8 98 0.2 - - - - - - - 0.0
19/04:00am 10.3 - 10.0 98 0.2 - - - - - - - 0.0
19/03:50am 10.2 - 9.9 98 0.2 - - - - - - - 0.0
19/03:40am 10.0 - 9.8 99 0.1 - - - - - - - 0.0
19/03:30am 10.1 - 9.9 99 0.1 - - - - - - - 0.0
19/03:20am 10.1 - 9.9 99 0.1 - - - - - - - 0.0
19/03:10am 10.2 - 10.0 99 0.1 - - - - - - - 0.0
19/03:00am 10.2 - 10.0 99 0.1 - - - - - - - 0.0
19/02:50am 10.3 - 10.0 98 0.2 - - - - - - - 0.0
19/02:40am 10.3 - 10.1 99 0.1 - - - - - - - 0.0
19/02:30am 10.4 - 10.2 99 0.1 - - - - - - - 0.0
19/02:20am 10.4 - 10.1 98 0.2 - - - - - - - 0.0
19/02:10am 10.4 - 10.1 98 0.2 - - - - - - - 0.0
19/02:00am 10.4 - 10.2 99 0.1 - - - - - - - 0.0
19/01:50am 10.4 - 10.2 99 0.1 - - - - - - - 0.0
19/01:40am 10.4 - 10.2 99 0.1 - - - - - - - 0.0
19/01:30am 10.4 - 10.2 99 0.1 - - - - - - - 0.0
19/01:20am 10.4 - 10.1 98 0.2 - - - - - - - 0.0
19/01:10am 10.3 - 10.1 99 0.1 - - - - - - - 0.0
19/01:00am 10.3 - 10.0 98 0.2 - - - - - - - 0.0
19/12:50am 10.3 - 10.1 99 0.1 - - - - - - - 0.0
19/12:40am 10.3 - 10.1 99 0.1 - - - - - - - 0.0
19/12:30am 10.4 - 10.1 98 0.2 - - - - - - - 0.0
19/12:20am 10.5 - 10.2 98 0.2 - - - - - - - 0.0
19/12:10am 10.5 - 10.2 98 0.2 - - - - - - - 0.0
19/12:00am 10.6 - 10.2 97 0.2 - - - - - - - 0.0
 
Date/Time
EST
Temp
°C
App
Temp
°C
Dew
Point
°C
Rel
Hum
%
Delta-T
°C
Wind Press
QNH
hPa
Press
MSL
hPa
Rain since
9am
mm
Dir  Spd
km/h
Gust
km/h
Spd
kts
Gust
kts
18/11:50pm 10.6 - 10.2 97 0.2 - - - - - - - 0.0
18/11:40pm 10.5 - 10.1 97 0.2 - - - - - - - 0.0
18/11:30pm 10.5 - 10.1 97 0.2 - - - - - - - 0.0
18/11:20pm 10.4 - 10.1 98 0.2 - - - - - - - 0.0
18/11:10pm 10.5 - 10.2 98 0.2 - - - - - - - 0.0
18/11:00pm 10.5 - 10.3 99 0.1 - - - - - - - 0.0
18/10:50pm 10.4 - 10.2 99 0.1 - - - - - - - 0.0
18/10:40pm 10.4 - 10.2 99 0.1 - - - - - - - 0.0
18/10:30pm 10.4 - 10.2 99 0.1 - - - - - - - 0.0
18/10:20pm 10.5 - 10.3 99 0.1 - - - - - - - 0.0
18/10:10pm 10.5 - 10.3 99 0.1 - - - - - - - 0.0
18/10:00pm 10.6 - 10.4 99 0.1 - - - - - - - 0.0
18/09:50pm 10.7 - 10.5 99 0.1 - - - - - - - 0.0
18/09:40pm 10.9 - 10.7 99 0.1 - - - - - - - 0.0
18/09:30pm 11.0 - 10.8 99 0.1 - - - - - - - 0.0
18/09:20pm 11.2 - 11.0 99 0.1 - - - - - - - 0.0
18/09:10pm 11.2 - 11.0 99 0.1 - - - - - - - 0.0
18/09:00pm 11.2 - 11.0 99 0.1 - - - - - - - 0.0
18/08:50pm 11.1 - 10.9 99 0.1 - - - - - - - 0.0
18/08:40pm 11.2 - 10.9 98 0.2 - - - - - - - 0.0
18/08:30pm 11.4 - 11.1 98 0.2 - - - - - - - 0.0
18/08:20pm 11.4 - 11.1 98 0.2 - - - - - - - 0.0
18/08:10pm 11.3 - 11.1 99 0.1 - - - - - - - 0.0
18/08:00pm 11.3 - 11.1 99 0.1 - - - - - - - 0.0
18/07:50pm 11.4 - 11.1 98 0.2 - - - - - - - 0.0
18/07:40pm 11.4 - 11.2 99 0.1 - - - - - - - 0.0
18/07:30pm 11.5 - 11.2 98 0.2 - - - - - - - 0.0
18/07:20pm 11.4 - 11.0 97 0.2 - - - - - - - 0.0
18/07:10pm 11.3 - 10.9 97 0.2 - - - - - - - 0.0
18/07:00pm 11.3 - 10.8 97 0.3 - - - - - - - 0.0
18/06:50pm 11.4 - 10.9 97 0.3 - - - - - - - 0.0
18/06:40pm 11.5 - 10.9 96 0.3 - - - - - - - 0.0
18/06:30pm 11.6 - 11.0 96 0.3 - - - - - - - 0.0
18/06:20pm 11.6 - 11.0 96 0.3 - - - - - - - 0.0
18/06:10pm 11.5 - 10.9 96 0.3 - - - - - - - 0.0
18/06:00pm 11.5 - 10.7 95 0.4 - - - - - - - 0.0
18/05:50pm 11.6 - 10.7 94 0.5 - - - - - - - 0.0
18/05:40pm 11.6 - 10.7 94 0.5 - - - - - - - 0.0
18/05:30pm 11.7 - 10.8 94 0.5 - - - - - - - 0.0
18/05:20pm 11.8 - 10.7 93 0.6 - - - - - - - 0.0
18/05:10pm 12.1 - 10.9 92 0.7 - - - - - - - 0.0
18/05:00pm 12.4 - 11.0 91 0.8 - - - - - - - 0.0
18/04:50pm 12.6 - 10.9 89 0.9 - - - - - - - 0.0
18/04:40pm 12.7 - 10.8 88 1.0 - - - - - - - 0.0
18/04:30pm 12.8 - 10.7 87 1.2 - - - - - - - 0.0
18/04:20pm 12.9 - 10.7 86 1.2 - - - - - - - 0.0
18/04:10pm 13.4 - 10.3 81 1.7 - - - - - - - 0.0
18/04:00pm 13.5 - 10.3 81 1.8 - - - - - - - 0.0
18/03:50pm 13.5 - 9.9 79 2.0 - - - - - - - 0.0
18/03:40pm 13.6 - 10.0 79 2.0 - - - - - - - 0.0
18/03:30pm 13.7 - 9.9 78 2.1 - - - - - - - 0.0
18/03:20pm 13.8 - 9.6 76 2.3 - - - - - - - 0.0
18/03:10pm 13.9 - 9.9 77 2.2 - - - - - - - 0.0
18/03:00pm 14.0 - 10.3 78 2.0 - - - - - - - 0.0
18/02:50pm 14.0 - 10.0 77 2.2 - - - - - - - 0.0
18/02:40pm 14.2 - 9.7 74 2.4 - - - - - - - 0.0
18/02:30pm 14.3 - 10.4 77 2.2 - - - - - - - 0.0
18/02:20pm 14.6 - 9.5 71 2.8 - - - - - - - 0.0
18/02:10pm 15.1 - 10.4 73 2.6 - - - - - - - 0.0
18/02:00pm 15.5 - 10.3 71 2.9 - - - - - - - 0.0
18/01:50pm 15.4 - 10.1 70 2.9 - - - - - - - 0.0
18/01:40pm 15.5 - 9.6 68 3.2 - - - - - - - 0.0
18/01:30pm 15.8 - 11.0 73 2.7 - - - - - - - 0.0
18/01:20pm 16.5 - 10.9 69 3.2 - - - - - - - 0.0
18/01:10pm 16.6 - 10.5 67 3.4 - - - - - - - 0.0
18/01:00pm 16.8 - 10.5 66 3.5 - - - - - - - 0.0
18/12:50pm 17.2 - 10.6 65 3.7 - - - - - - - 0.0
18/12:40pm 16.7 - 10.9 68 3.3 - - - - - - - 0.0
18/12:30pm 16.6 - 10.7 68 3.3 - - - - - - - 0.0
18/12:20pm 16.7 - 10.5 67 3.5 - - - - - - - 0.0
18/12:10pm 16.2 - 9.8 66 3.5 - - - - - - - 0.0
18/12:00pm 16.2 - 10.7 70 3.1 - - - - - - - 0.0
18/11:50am 16.5 - 11.0 70 3.1 - - - - - - - 0.0
18/11:40am 17.9 - 12.1 69 3.4 - - - - - - - 0.0
18/11:30am 17.6 - 11.6 68 3.4 - - - - - - - 0.0
18/11:20am 17.2 - 9.8 61 4.1 - - - - - - - 0.0
18/11:10am 16.8 - 11.3 70 3.1 - - - - - - - 0.0
18/11:00am 16.8 - 10.1 64 3.7 - - - - - - - 0.0
18/10:50am 17.6 - 11.0 65 3.7 - - - - - - - 0.0
18/10:40am 17.3 - 10.7 65 3.7 - - - - - - - 0.0
18/10:30am 17.2 - 10.4 64 3.8 - - - - - - - 0.0
18/10:20am 17.0 - 10.6 66 3.6 - - - - - - - 0.0
18/10:10am 16.9 - 9.7 62 4.0 - - - - - - - 0.0
18/10:00am 16.8 - 11.6 71 3.0 - - - - - - - 0.0
18/09:50am 16.5 - 9.7 64 3.7 - - - - - - - 0.0

Other formats

Comma delimited format used in spreadsheet applications
http://www.bom.gov.au/fwo/IDN60801/IDN60801.99753.axf

JavaScript Object Notation format (JSON) in row-major order
http://www.bom.gov.au/fwo/IDN60801/IDN60801.99753.json

Data quality

Most of these data are generated automatically and are frequently updated. Quality checks on data are not normally performed. It is possible for incorrect values to appear. Refer to information at About Latest Weather Observations and please check the disclaimer before using these data.